Time;durP1;ratioP1;P1;durP2;ratioP2;P2;SDS_P1;SDS_P2;PMS_P1;PMS_P2;Temp;Humidity;BMP_temperature;BMP_pressure;BME280_temperature;BME280_humidity;BME280_pressure;Samples;Min_cycle;Max_cycle;Signal;HPM_P1;HPM_P2
2023/03/15 00:00:06;;;;;;;0.80;0.80;;;;;;;8.99;59.22;94512.63;5114645;28;20859;-56
2023/03/15 00:02:36;;;;;;;0.40;0.40;;;;;;;9.31;58.79;94542.69;5114022;28;20474;-57
2023/03/15 00:05:05;;;;;;;0.30;0.20;;;;;;;9.30;58.61;94541.13;5114562;28;20445;-56
2023/03/15 00:07:33;;;;;;;0.30;0.20;;;;;;;9.26;58.69;94534.06;5113959;28;20797;-56
2023/03/15 00:10:03;;;;;;;0.70;0.37;;;;;;;9.34;58.75;94533.41;5114259;28;20425;-56
2023/03/15 00:12:33;;;;;;;0.40;0.20;;;;;;;9.20;58.40;94540.44;5114053;28;20465;-56
2023/03/15 00:15:01;;;;;;;0.30;0.30;;;;;;;8.55;58.68;94459.91;5114182;28;20422;-56
2023/03/15 00:17:33;;;;;;;0.53;0.53;;;;;;;9.04;58.94;94539.78;5113453;28;20428;-56
2023/03/15 00:20:05;;;;;;;4.27;0.30;;;;;;;9.20;59.94;94540.44;5114225;28;20480;-56
2023/03/15 00:22:33;;;;;;;0.30;0.30;;;;;;;9.28;58.92;94534.56;5113654;28;20500;-57
2023/03/15 00:25:01;;;;;;;0.30;0.30;;;;;;;9.28;59.73;94510.75;5113779;28;20481;-56
2023/03/15 00:27:30;;;;;;;0.30;0.20;;;;;;;8.42;61.00;94514.16;5113424;28;20806;-57
2023/03/15 00:29:58;;;;;;;0.30;0.20;;;;;;;8.30;61.56;94508.41;5113525;28;20425;-56
2023/03/15 00:32:26;;;;;;;0.30;0.30;;;;;;;8.67;61.31;94511.31;5113604;28;20434;-56
2023/03/15 00:34:55;;;;;;;0.30;0.20;;;;;;;8.82;61.58;94482.13;5113678;28;20520;-56
2023/03/15 00:37:25;;;;;;;1.80;0.50;;;;;;;9.01;60.48;94490.13;5113390;28;20466;-56
2023/03/15 00:39:54;;;;;;;0.30;0.20;;;;;;;8.97;59.97;94488.31;5113569;28;20438;-56
2023/03/15 00:42:26;;;;;;;0.83;0.30;;;;;;;8.85;60.16;94486.84;5113586;28;20539;-56
2023/03/15 00:44:55;;;;;;;0.63;0.40;;;;;;;8.62;61.39;94490.22;5113096;28;20425;-56
2023/03/15 00:47:23;;;;;;;0.30;0.30;;;;;;;8.62;61.73;94484.16;5113664;28;20781;-56
2023/03/15 00:49:52;;;;;;;0.30;0.20;;;;;;;8.60;61.67;94487.03;5113469;28;20998;-56
2023/03/15 00:52:20;;;;;;;0.50;0.47;;;;;;;8.20;64.18;94484.66;5113677;28;20438;-56
2023/03/15 00:54:53;;;;;;;0.30;0.30;;;;;;;7.80;64.55;94477.00;5113543;28;20418;-56
2023/03/15 00:57:22;;;;;;;0.30;0.20;;;;;;;7.67;64.64;94488.94;5113401;28;20429;-56
2023/03/15 00:59:51;;;;;;;0.30;0.20;;;;;;;8.23;64.00;94470.94;5113192;28;20461;-56
2023/03/15 01:02:21;;;;;;;0.30;0.20;;;;;;;8.59;62.76;94461.72;5113015;28;20480;-56
2023/03/15 01:04:50;;;;;;;0.40;0.40;;;;;;;8.79;62.45;94458.09;5113268;28;20478;-56
2023/03/15 01:07:18;;;;;;;0.30;0.20;;;;;;;8.95;62.07;94459.53;5092585;28;20518;-56
2023/03/15 01:09:47;;;;;;;0.57;0.50;;;;;;;9.10;61.74;94462.03;5092605;28;20454;-56
2023/03/15 01:12:17;;;;;;;0.50;0.30;;;;;;;8.72;62.04;94407.44;5092830;28;20433;-56
2023/03/15 01:14:45;;;;;;;0.50;0.30;;;;;;;9.10;61.92;94448.03;5092898;28;20526;-56
2023/03/15 01:17:13;;;;;;;0.50;0.50;;;;;;;9.11;60.39;94439.03;5092295;28;21022;-55
2023/03/15 01:19:42;;;;;;;0.30;0.20;;;;;;;8.92;60.88;94439.75;5092582;28;20467;-56
2023/03/15 01:22:10;;;;;;;0.40;0.20;;;;;;;8.66;61.77;94435.75;5092077;28;20486;-56
2023/03/15 01:24:38;;;;;;;0.30;0.20;;;;;;;8.67;61.87;94429.44;5092412;28;20421;-56
2023/03/15 01:27:07;;;;;;;0.40;0.27;;;;;;;8.81;61.67;94427.69;5092499;28;20483;-56
2023/03/15 01:29:36;;;;;;;0.40;0.30;;;;;;;8.87;61.30;94418.66;5092528;28;20430;-56
2023/03/15 01:32:05;;;;;;;0.40;0.30;;;;;;;9.00;61.48;94429.63;5092415;28;20537;-56
2023/03/15 01:34:34;;;;;;;0.40;0.30;;;;;;;9.28;63.64;94420.88;5092585;28;20848;-56
2023/03/15 01:37:02;;;;;;;0.30;0.20;;;;;;;8.81;66.37;94435.63;5092035;28;20432;-56
2023/03/15 01:39:31;;;;;;;0.90;0.90;;;;;;;8.85;62.63;94439.28;5092286;28;20428;-56
2023/03/15 01:41:59;;;;;;;0.40;0.30;;;;;;;8.26;62.49;94362.16;5091925;28;20456;-56
2023/03/15 01:44:51;;;;;;;0.87;0.87;;;;;;;7.56;65.88;94422.25;5092316;28;20429;-56
2023/03/15 01:47:20;;;;;;;0.40;0.40;;;;;;;7.14;68.10;94434.31;5091810;28;20428;-56
2023/03/15 01:49:53;;;;;;;0.50;0.30;;;;;;;7.54;66.67;94434.94;5092350;28;20497;-56
2023/03/15 01:52:24;;;;;;;0.30;0.20;;;;;;;7.74;66.14;94428.00;5092067;28;20446;-56
2023/03/15 01:54:56;;;;;;;0.70;0.40;;;;;;;7.39;66.74;94429.72;5091611;28;20993;-56
2023/03/15 01:57:30;;;;;;;0.30;0.20;;;;;;;6.98;68.76;94428.31;5091998;28;20830;-56
2023/03/15 02:00:09;;;;;;;0.40;0.30;;;;;;;6.86;69.23;94380.41;5091103;28;20471;-56
2023/03/15 02:02:40;;;;;;;0.40;0.30;;;;;;;7.54;67.50;94419.13;5091735;28;20482;-56
2023/03/15 02:05:11;;;;;;;0.30;0.20;;;;;;;7.58;67.25;94420.16;5091598;28;20515;-56
2023/03/15 02:07:48;;;;;;;0.47;0.40;;;;;;;7.94;65.92;94412.84;5091728;28;20466;-56
2023/03/15 02:10:23;;;;;;;0.40;0.30;;;;;;;7.84;66.45;94406.81;5091604;28;20938;-56
2023/03/15 02:12:52;;;;;;;0.40;0.30;;;;;;;7.94;65.67;94398.84;5091597;28;20437;-56
2023/03/15 02:15:22;;;;;;;0.40;0.40;;;;;;;7.18;68.48;94403.75;5106422;28;20461;-56
2023/03/15 02:17:50;;;;;;;0.50;0.47;;;;;;;7.80;66.74;94389.97;5111894;28;20467;-56
2023/03/15 02:20:34;;;;;;;0.33;0.27;;;;;;;7.58;66.64;94338.44;5111724;28;20466;-56
2023/03/15 02:23:05;;;;;;;0.40;0.30;;;;;;;8.32;66.82;94386.69;5111437;28;20536;-56
2023/03/15 02:25:41;;;;;;;1.03;1.03;;;;;;;8.02;66.16;94383.19;5111617;28;20468;-56
2023/03/15 02:28:13;;;;;;;0.40;0.40;;;;;;;7.81;67.22;94370.44;5111719;28;21000;-56
2023/03/15 02:30:43;;;;;;;0.33;0.30;;;;;;;8.06;65.98;94378.16;5111643;28;20925;-56
2023/03/15 02:33:17;;;;;;;0.30;0.20;;;;;;;8.50;64.15;94378.09;5111910;28;20435;-56
2023/03/15 02:35:46;;;;;;;0.80;0.60;;;;;;;7.68;66.38;94364.72;5111606;28;20436;-56
2023/03/15 02:38:14;;;;;;;0.47;0.47;;;;;;;7.48;67.96;94361.44;5111244;28;20423;-56
2023/03/15 02:40:44;;;;;;;0.80;0.63;;;;;;;7.68;67.57;94359.44;5111248;28;20433;-56
2023/03/15 02:43:18;;;;;;;0.30;0.20;;;;;;;7.35;68.16;94352.28;5111447;28;20552;-56
2023/03/15 02:45:47;;;;;;;0.40;0.40;;;;;;;7.47;67.96;94350.09;5111743;28;20448;-56
2023/03/15 02:48:17;;;;;;;0.30;0.23;;;;;;;7.79;67.04;94362.03;5111610;28;20437;-55
2023/03/15 02:50:45;;;;;;;1.33;0.30;;;;;;;7.89;66.70;94365.38;5111178;28;20972;-56
2023/03/15 02:53:14;;;;;;;0.50;0.50;;;;;;;7.74;66.94;94359.41;5111529;28;20417;-55
2023/03/15 02:55:42;;;;;;;1.27;0.87;;;;;;;7.13;68.55;94354.50;5111494;28;20472;-56
2023/03/15 02:58:10;;;;;;;0.73;0.50;;;;;;;6.65;72.21;94357.84;5111775;28;20514;-56
2023/03/15 03:00:40;;;;;;;0.50;0.30;;;;;;;6.60;73.49;94349.94;5111742;28;20425;-56
2023/03/15 03:03:08;;;;;;;0.40;0.30;;;;;;;6.83;73.55;94350.13;5110591;28;20491;-56
2023/03/15 03:05:36;;;;;;;0.30;0.23;;;;;;;7.61;69.41;94342.38;5111247;28;20837;-56
2023/03/15 03:08:05;;;;;;;0.30;0.20;;;;;;;7.77;69.06;94333.25;5111276;28;20468;-56
2023/03/15 03:10:34;;;;;;;1.53;0.63;;;;;;;7.81;68.30;94307.94;5111382;28;20530;-56
2023/03/15 03:13:02;;;;;;;0.40;0.40;;;;;;;7.83;67.66;94336.66;5111146;28;20789;-56
2023/03/15 03:15:30;;;;;;;0.40;0.30;;;;;;;7.94;67.34;94324.97;5111326;28;20880;-56
2023/03/15 03:18:00;;;;;;;0.30;0.20;;;;;;;7.94;67.16;94327.63;5112215;28;20521;-56
2023/03/15 03:20:28;;;;;;;0.57;0.33;;;;;;;8.01;66.67;94325.44;5115127;28;20474;-56
2023/03/15 03:22:57;;;;;;;0.87;0.57;;;;;;;8.12;66.47;94316.38;5114686;28;20465;-56
2023/03/15 03:25:26;;;;;;;0.50;0.50;;;;;;;8.14;66.33;94317.69;5114959;28;20918;-56
2023/03/15 03:27:56;;;;;;;0.40;0.30;;;;;;;7.71;66.69;94281.63;5114995;28;20429;-56
2023/03/15 03:30:24;;;;;;;0.40;0.33;;;;;;;7.27;69.01;94312.50;5114790;28;20520;-56
2023/03/15 03:32:53;;;;;;;0.87;0.87;;;;;;;6.62;72.75;94322.31;5114873;28;20442;-56
2023/03/15 03:35:23;;;;;;;0.50;0.30;;;;;;;6.16;76.43;94318.19;5114956;28;20431;-56
2023/03/15 03:37:52;;;;;;;0.63;0.63;;;;;;;5.68;80.05;94280.09;5114800;28;20445;-56
2023/03/15 03:40:21;;;;;;;0.50;0.50;;;;;;;6.79;78.49;94311.44;5114647;28;20474;-56
2023/03/15 03:42:49;;;;;;;0.30;0.20;;;;;;;7.25;74.29;94315.44;5114687;28;20432;-56
2023/03/15 03:45:17;;;;;;;0.30;0.30;;;;;;;7.56;72.76;94313.41;5114538;28;20501;-55
2023/03/15 03:47:46;;;;;;;1.53;0.40;;;;;;;7.64;70.69;94307.50;5114257;28;20462;-56
2023/03/15 03:50:15;;;;;;;1.27;0.50;;;;;;;7.73;70.44;94294.53;5115095;28;20837;-55
2023/03/15 03:52:45;;;;;;;0.30;0.20;;;;;;;7.86;70.35;94291.28;5114634;28;20461;-56
2023/03/15 03:55:13;;;;;;;0.30;0.23;;;;;;;7.95;71.00;94302.78;5114239;28;20446;-56
2023/03/15 03:57:42;;;;;;;0.30;0.20;;;;;;;7.82;69.39;94279.72;5114263;28;20486;-56
2023/03/15 04:00:14;;;;;;;0.30;0.20;;;;;;;7.69;68.20;94300.34;5114528;28;20471;-55
2023/03/15 04:02:42;;;;;;;1.60;0.50;;;;;;;6.99;69.70;94269.19;5114267;28;20434;-56
2023/03/15 04:05:11;;;;;;;0.93;0.93;;;;;;;6.38;73.21;94301.03;5114211;28;20461;-57
2023/03/15 04:07:40;;;;;;;0.40;0.30;;;;;;;6.05;77.88;94317.41;5114287;28;20971;-57
2023/03/15 04:10:13;;;;;;;0.30;0.23;;;;;;;6.34;77.38;94309.75;5114131;28;20436;-57
2023/03/15 04:12:42;;;;;;;1.00;0.50;;;;;;;6.35;75.01;94269.19;5113586;28;20498;-56
2023/03/15 04:15:12;;;;;;;0.40;0.30;;;;;;;6.44;75.61;94312.34;5114162;28;20423;-57
2023/03/15 04:17:40;;;;;;;1.90;1.33;;;;;;;5.91;79.06;94315.59;5113714;28;20507;-56
2023/03/15 04:20:14;;;;;;;1.53;1.43;;;;;;;5.58;82.12;94309.78;5114046;28;20427;-56
2023/03/15 04:22:48;;;;;;;0.60;0.57;;;;;;;5.78;81.71;94296.66;5113757;28;20477;-56
2023/03/15 04:25:19;;;;;;;0.40;0.40;;;;;;;6.04;78.59;94272.97;5113999;28;20463;-56
2023/03/15 04:27:57;;;;;;;3.60;0.47;;;;;;;6.55;75.25;94297.31;5113666;28;20474;-56
2023/03/15 04:30:27;;;;;;;0.63;0.60;;;;;;;6.47;74.80;94292.59;5113499;28;20425;-56
2023/03/15 04:32:57;;;;;;;0.40;0.37;;;;;;;5.80;73.85;94167.56;5114040;28;20802;-56
2023/03/15 04:35:26;;;;;;;0.30;0.20;;;;;;;6.73;72.76;94289.59;5113719;28;20926;-57
2023/03/15 04:37:55;;;;;;;0.67;0.67;;;;;;;7.00;71.57;94291.84;5113348;28;20432;-56
2023/03/15 04:40:25;;;;;;;0.40;0.20;;;;;;;7.09;71.11;94292.06;5113647;28;20964;-57
2023/03/15 04:42:56;;;;;;;0.40;0.40;;;;;;;7.30;69.86;94301.44;5113777;28;20436;-56
2023/03/15 04:45:25;;;;;;;0.60;0.30;;;;;;;7.14;70.41;94295.47;5113222;28;20475;-56
2023/03/15 04:47:55;;;;;;;0.40;0.40;;;;;;;6.67;71.17;94253.03;5113553;28;20808;-56
2023/03/15 04:50:24;;;;;;;3.40;1.00;;;;;;;5.99;75.71;94270.34;5113680;28;20426;-57
2023/03/15 04:52:53;;;;;;;2.63;0.73;;;;;;;6.26;78.26;94292.66;5113482;28;20471;-56
2023/03/15 04:55:21;;;;;;;0.60;0.50;;;;;;;6.50;75.92;94299.97;5113207;28;20488;-56
2023/03/15 04:57:51;;;;;;;0.50;0.50;;;;;;;6.55;75.84;94299.94;5113400;28;20430;-56
2023/03/15 05:00:20;;;;;;;0.30;0.30;;;;;;;6.66;74.83;94297.00;5113309;28;20436;-55
2023/03/15 05:02:53;;;;;;;0.30;0.20;;;;;;;6.42;75.79;94303.16;5113275;28;20516;-55
2023/03/15 05:05:23;;;;;;;0.87;0.67;;;;;;;6.07;78.44;94298.75;5112818;28;20465;-56
2023/03/15 05:07:51;;;;;;;0.30;0.20;;;;;;;5.88;79.63;94295.88;5112987;28;20431;-56
2023/03/15 05:10:20;;;;;;;1.37;1.27;;;;;;;5.78;81.38;94306.38;5112594;28;20464;-56
2023/03/15 05:12:48;;;;;;;1.13;0.87;;;;;;;6.29;80.15;94294.75;5112828;28;20933;-56
2023/03/15 05:15:18;;;;;;;25.13;12.40;;;;;;;6.06;80.28;94282.19;5113062;28;20856;-55
2023/03/15 05:17:47;;;;;;;33.17;15.40;;;;;;;6.65;78.40;94308.59;5112670;28;20439;-55
2023/03/15 05:20:16;;;;;;;14.87;7.70;;;;;;;6.76;75.94;94304.84;5112749;28;20438;-57
2023/03/15 05:22:44;;;;;;;5.53;4.23;;;;;;;6.37;76.14;94262.63;5112315;28;20545;-56
2023/03/15 05:25:14;;;;;;;2.20;1.83;;;;;;;5.84;79.19;94257.22;5112080;28;20571;-56
2023/03/15 05:27:45;;;;;;;2.93;0.93;;;;;;;5.94;80.97;94289.56;5112234;28;20426;-56
2023/03/15 05:30:15;;;;;;;1.00;1.00;;;;;;;6.05;82.18;94324.50;5112315;28;20417;-56
2023/03/15 05:32:45;;;;;;;0.77;0.77;;;;;;;6.82;79.76;94321.44;5112285;28;20493;-55
2023/03/15 05:35:13;;;;;;;0.70;0.70;;;;;;;7.54;74.87;94315.50;5112512;28;20853;-55
2023/03/15 05:37:42;;;;;;;6.07;1.90;;;;;;;6.99;74.98;94319.25;5111795;28;20529;-56
2023/03/15 05:40:11;;;;;;;1.13;0.70;;;;;;;7.23;74.49;94314.13;5110591;28;20431;-56
2023/03/15 05:42:40;;;;;;;0.50;0.40;;;;;;;7.48;73.40;94313.97;5111358;28;20834;-55
2023/03/15 05:45:09;;;;;;;2.43;2.33;;;;;;;7.55;71.95;94319.72;5111317;28;20571;-55
2023/03/15 05:47:37;;;;;;;1.20;1.20;;;;;;;7.04;73.53;94322.66;5111504;28;20429;-55
2023/03/15 05:50:08;;;;;;;7.93;4.10;;;;;;;7.01;74.45;94322.38;5111375;28;20431;-55
2023/03/15 05:52:36;;;;;;;0.93;0.93;;;;;;;7.28;73.53;94314.88;5112244;28;21022;-55
2023/03/15 05:55:05;;;;;;;5.23;1.33;;;;;;;7.20;73.45;94309.41;5112038;28;20461;-55
2023/03/15 05:57:33;;;;;;;1.50;1.40;;;;;;;7.54;72.62;94316.28;5111920;28;20521;-56
2023/03/15 06:00:04;;;;;;;4.90;1.80;;;;;;;7.72;71.86;94317.47;5112531;28;20510;-55
2023/03/15 06:02:33;;;;;;;1.33;0.50;;;;;;;7.80;71.64;94314.25;5111889;28;20434;-55
2023/03/15 06:05:01;;;;;;;1.33;1.23;;;;;;;7.76;72.41;94315.09;5111342;28;20968;-56
2023/03/15 06:07:31;;;;;;;0.83;0.60;;;;;;;7.58;73.29;94319.97;5112062;28;20464;-55
2023/03/15 06:10:00;;;;;;;0.40;0.30;;;;;;;6.87;74.94;94321.41;5112121;28;20518;-56
2023/03/15 06:12:28;;;;;;;1.07;0.80;;;;;;;7.08;75.31;94283.41;5111623;28;20852;-55
2023/03/15 06:14:56;;;;;;;0.60;0.60;;;;;;;7.43;75.46;94325.34;5111995;28;20442;-55
2023/03/15 06:17:25;;;;;;;2.83;0.93;;;;;;;7.78;75.03;94318.22;5112213;28;20760;-57
2023/03/15 06:19:53;;;;;;;8.23;0.90;;;;;;;8.37;73.25;94315.38;5112107;28;20418;-54
2023/03/15 06:22:23;;;;;;;0.40;0.30;;;;;;;8.79;70.92;94302.22;5111527;28;20564;-55
2023/03/15 06:24:53;;;;;;;0.70;0.70;;;;;;;9.09;68.59;94285.22;5111688;28;20567;-55
2023/03/15 06:27:21;;;;;;;0.50;0.30;;;;;;;9.47;67.06;94300.81;5111472;28;20459;-55
2023/03/15 06:29:50;;;;;;;0.97;0.70;;;;;;;8.99;67.58;94312.56;5111731;28;20552;-55
2023/03/15 06:32:18;;;;;;;0.60;0.60;;;;;;;8.98;67.74;94315.50;5111572;28;20507;-56
2023/03/15 06:34:46;;;;;;;2.47;1.40;;;;;;;8.78;70.32;94312.00;5111421;28;20449;-56
2023/03/15 06:37:15;;;;;;;0.50;0.37;;;;;;;8.63;70.07;94312.19;5111465;28;20446;-56
2023/03/15 06:39:54;;;;;;;1.53;1.47;;;;;;;8.69;70.05;94308.44;5111514;28;20904;-54
2023/03/15 06:42:22;;;;;;;1.57;1.33;;;;;;;9.36;67.70;94299.38;5111145;28;20425;-55
2023/03/15 06:44:50;;;;;;;0.50;0.50;;;;;;;9.34;67.51;94303.38;5111690;28;20442;-55
2023/03/15 06:47:19;;;;;;;1.33;1.33;;;;;;;9.49;65.53;94290.72;5111838;28;20419;-54
2023/03/15 06:49:49;;;;;;;1.37;0.80;;;;;;;9.68;65.31;94297.88;5111574;28;20435;-55
2023/03/15 06:52:18;;;;;;;0.67;0.50;;;;;;;10.18;64.43;94294.44;5113024;28;20962;-55
2023/03/15 06:54:46;;;;;;;0.50;0.30;;;;;;;10.62;63.44;94281.44;5116116;28;20862;-56
2023/03/15 06:57:16;;;;;;;1.00;1.00;;;;;;;10.73;62.68;94279.38;5115901;28;20836;-55
2023/03/15 06:59:45;;;;;;;4.03;1.47;;;;;;;10.88;62.41;94273.78;5115788;28;20796;-55
2023/03/15 07:02:15;;;;;;;3.40;1.80;;;;;;;11.01;61.19;94272.97;5115837;28;20913;-55
2023/03/15 07:04:44;;;;;;;1.43;0.63;;;;;;;11.01;61.10;94262.38;5115634;28;20924;-55
2023/03/15 07:07:13;;;;;;;1.00;1.00;;;;;;;11.36;60.16;94282.81;5115786;28;20452;-55
2023/03/15 07:09:41;;;;;;;0.60;0.60;;;;;;;12.02;58.07;94278.69;5115481;28;20451;-55
2023/03/15 07:12:11;;;;;;;1.63;1.63;;;;;;;12.06;57.60;94282.31;5115434;28;21005;-56
2023/03/15 07:14:41;;;;;;;1.17;1.17;;;;;;;11.59;58.53;94285.50;5115434;28;20485;-55
2023/03/15 07:17:09;;;;;;;0.80;0.80;;;;;;;13.01;56.06;94276.31;5115449;28;20435;-55
2023/03/15 07:19:38;;;;;;;0.90;0.90;;;;;;;13.42;55.36;94275.97;5115420;28;20908;-56
2023/03/15 07:22:17;;;;;;;2.97;2.63;;;;;;;13.95;54.12;94270.34;5115366;28;20806;-57
2023/03/15 07:24:45;;;;;;;2.47;1.80;;;;;;;13.24;52.81;94175.94;5115277;28;20447;-57
2023/03/15 07:27:14;;;;;;;6.70;0.97;;;;;;;14.10;53.03;94251.19;5115149;28;21251;-58
2023/03/15 07:29:49;;;;;;;2.00;0.47;;;;;;;14.38;51.17;94243.63;5115204;28;20435;-58
2023/03/15 07:32:17;;;;;;;0.67;0.67;;;;;;;13.53;51.35;94244.50;5115347;28;20428;-59
2023/03/15 07:34:45;;;;;;;0.60;0.50;;;;;;;13.40;52.71;94243.56;5115290;28;20487;-59
2023/03/15 07:37:14;;;;;;;0.50;0.50;;;;;;;12.77;52.07;94079.22;5114746;28;20470;-59
2023/03/15 07:39:43;;;;;;;0.40;0.30;;;;;;;15.21;49.30;94228.63;5115286;28;20444;-50
2023/03/15 07:42:11;;;;;;;0.40;0.30;;;;;;;14.90;51.12;94225.53;5114686;28;20432;-48
2023/03/15 07:44:39;;;;;;;1.80;1.17;;;;;;;15.44;52.21;94229.09;5114790;28;20430;-53
2023/03/15 07:47:10;;;;;;;0.60;0.53;;;;;;;16.26;54.02;94225.59;5114528;28;20455;-55
2023/03/15 07:49:38;;;;;;;0.60;0.53;;;;;;;16.16;51.70;94226.00;5114622;28;20896;-55
2023/03/15 07:52:07;;;;;;;1.23;0.90;;;;;;;16.22;50.08;94227.34;5114556;28;21002;-58
2023/03/15 07:54:35;;;;;;;0.60;0.50;;;;;;;16.12;54.08;94220.53;5114298;28;20463;-55
2023/03/15 07:57:04;;;;;;;0.53;0.40;;;;;;;15.13;51.67;94222.25;5114465;28;20435;-57
2023/03/15 07:59:33;;;;;;;0.60;0.53;;;;;;;15.01;48.04;94219.50;5114329;28;20444;-52
2023/03/15 08:02:01;;;;;;;2.77;1.07;;;;;;;15.90;49.08;94212.88;5114235;28;20440;-51
2023/03/15 08:04:31;;;;;;;0.40;0.30;;;;;;;15.91;47.84;94211.00;5113075;28;20470;-52
2023/03/15 08:07:02;;;;;;;0.70;0.50;;;;;;;15.99;47.77;94221.59;5114742;28;20548;-53
2023/03/15 08:09:33;;;;;;;0.40;0.40;;;;;;;15.44;48.72;94210.41;5113403;28;20424;-54
2023/03/15 08:12:02;;;;;;;0.50;0.50;;;;;;;16.04;48.03;94207.25;5113153;28;20439;-53
2023/03/15 08:14:31;;;;;;;0.60;0.53;;;;;;;14.92;49.65;94215.31;5113416;28;20428;-53
2023/03/15 08:16:59;;;;;;;0.43;0.37;;;;;;;13.75;49.67;94210.50;5113236;28;20511;-54
2023/03/15 08:19:27;;;;;;;0.40;0.30;;;;;;;14.26;50.10;94206.97;5113320;28;20424;-53
2023/03/15 08:21:57;;;;;;;0.60;0.60;;;;;;;14.25;49.38;94199.25;5112866;28;20420;-53
2023/03/15 08:24:25;;;;;;;0.60;0.60;;;;;;;14.07;50.67;94201.19;5113161;28;20507;-53
2023/03/15 08:26:54;;;;;;;0.40;0.40;;;;;;;14.42;49.39;94196.59;5112566;28;20482;-53
2023/03/15 08:29:22;;;;;;;0.40;0.30;;;;;;;14.41;49.00;94193.13;5113278;28;20423;-54
2023/03/15 08:31:51;;;;;;;0.70;0.40;;;;;;;14.42;49.64;94192.00;5113803;28;20422;-54
2023/03/15 08:34:20;;;;;;;4.03;0.60;;;;;;;14.28;49.11;94201.28;5113665;28;20435;-55
2023/03/15 08:36:49;;;;;;;0.60;0.60;;;;;;;14.30;49.22;94185.75;5113452;28;20993;-55
2023/03/15 08:39:19;;;;;;;0.70;0.70;;;;;;;13.58;50.10;94140.53;5113088;28;20450;-55
2023/03/15 08:41:49;;;;;;;0.40;0.30;;;;;;;13.66;50.77;94183.09;5113729;28;20439;-55
2023/03/15 08:44:17;;;;;;;0.50;0.50;;;;;;;14.35;50.53;94191.75;5113392;28;20516;-55
2023/03/15 08:46:46;;;;;;;5.10;0.63;;;;;;;14.72;47.68;94181.38;5113380;28;20470;-55
2023/03/15 08:49:14;;;;;;;0.60;0.40;;;;;;;14.26;47.30;94176.84;5113244;28;20904;-56
2023/03/15 08:51:42;;;;;;;0.40;0.30;;;;;;;13.27;49.57;94191.28;5112475;28;20442;-56
2023/03/15 08:54:12;;;;;;;0.40;0.30;;;;;;;13.71;50.23;94184.84;5113263;28;20424;-55
2023/03/15 08:56:42;;;;;;;0.40;0.30;;;;;;;13.70;49.56;94106.03;5113311;28;20507;-55
2023/03/15 08:59:10;;;;;;;0.30;0.30;;;;;;;14.89;48.25;94174.06;5113209;28;20811;-56
2023/03/15 09:01:49;;;;;;;0.50;0.30;;;;;;;14.41;47.79;94182.47;5113586;28;20851;-55
2023/03/15 09:04:17;;;;;;;1.20;0.63;;;;;;;13.97;49.59;94175.69;5113157;28;20904;-55
2023/03/15 09:06:45;;;;;;;0.53;0.53;;;;;;;13.51;50.27;94166.84;5113016;28;21256;-55
2023/03/15 09:09:16;;;;;;;0.83;0.73;;;;;;;13.20;50.92;94167.81;5113241;28;20465;-55
2023/03/15 09:11:45;;;;;;;0.30;0.20;;;;;;;13.82;50.93;94167.41;5113024;28;20766;-56
2023/03/15 09:14:14;;;;;;;0.73;0.73;;;;;;;13.85;51.15;94166.78;5112304;28;20457;-56
2023/03/15 09:16:42;;;;;;;0.37;0.30;;;;;;;13.88;49.74;94158.16;5111848;28;20514;-56
2023/03/15 09:19:11;;;;;;;0.30;0.30;;;;;;;14.46;48.53;94170.84;5112809;28;20857;-55
2023/03/15 09:21:39;;;;;;;0.37;0.30;;;;;;;14.35;47.81;94162.41;5113066;28;20428;-55
2023/03/15 09:24:08;;;;;;;0.37;0.30;;;;;;;14.25;48.27;94156.63;5112541;28;20476;-55
2023/03/15 09:26:37;;;;;;;0.40;0.40;;;;;;;14.05;49.08;94162.66;5112351;28;21030;-55
2023/03/15 09:29:08;;;;;;;1.90;0.60;;;;;;;14.37;49.92;94162.88;5112630;28;20432;-55
2023/03/15 09:31:36;;;;;;;0.40;0.30;;;;;;;13.84;48.48;94173.19;5112472;28;20496;-55
2023/03/15 09:34:04;;;;;;;0.90;0.60;;;;;;;13.34;47.98;94171.06;5112335;28;20443;-55
2023/03/15 09:36:33;;;;;;;0.83;0.83;;;;;;;13.48;48.57;94168.25;5112506;28;20477;-55
2023/03/15 09:39:02;;;;;;;0.30;0.20;;;;;;;13.94;49.30;94170.19;5112463;28;20489;-56
2023/03/15 09:41:42;;;;;;;0.40;0.40;;;;;;;13.92;49.43;94178.50;5112686;28;20427;-55
2023/03/15 09:44:26;;;;;;;0.53;0.53;;;;;;;13.35;50.69;94169.22;5112054;28;20442;-56
2023/03/15 09:47:06;;;;;;;0.50;0.50;;;;;;;13.40;50.63;94170.91;5112277;28;20479;-55
2023/03/15 09:49:44;;;;;;;0.73;0.50;;;;;;;13.32;49.82;94164.50;5112527;28;20811;-56
2023/03/15 09:52:26;;;;;;;1.13;1.03;;;;;;;13.35;49.09;94126.63;5112340;28;20442;-56
2023/03/15 09:55:00;;;;;;;0.40;0.30;;;;;;;13.58;49.05;94149.31;5112409;28;20527;-56
2023/03/15 09:57:39;;;;;;;0.40;0.30;;;;;;;13.94;49.54;94173.66;5111862;28;20932;-56
2023/03/15 10:00:15;;;;;;;0.40;0.40;;;;;;;13.65;49.16;94164.78;5112179;28;20423;-60
2023/03/15 10:02:52;;;;;;;0.40;0.40;;;;;;;13.39;48.86;94167.47;5112026;28;20789;-60
2023/03/15 10:05:24;;;;;;;0.30;0.20;;;;;;;13.61;48.68;94166.53;5111940;28;20800;-60
2023/03/15 10:07:52;;;;;;;0.37;0.30;;;;;;;13.61;48.21;94169.19;5111685;28;20479;-61
2023/03/15 10:10:27;;;;;;;0.30;0.20;;;;;;;13.77;49.15;94165.69;5112118;28;20867;-59
2023/03/15 10:13:03;;;;;;;0.40;0.30;;;;;;;13.93;48.35;94166.00;5111977;28;20493;-60
2023/03/15 10:15:44;;;;;;;0.40;0.33;;;;;;;13.63;48.87;94154.47;5111651;28;20427;-60
2023/03/15 10:18:26;;;;;;;0.30;0.27;;;;;;;13.74;48.32;94154.88;5111852;28;20443;-61
2023/03/15 10:21:02;;;;;;;0.60;0.60;;;;;;;13.66;47.84;94159.13;5111870;28;20430;-60
2023/03/15 10:23:41;;;;;;;0.60;0.53;;;;;;;13.46;48.94;94169.69;5111815;28;20507;-54
2023/03/15 10:26:14;;;;;;;0.50;0.37;;;;;;;13.48;48.07;94162.94;5111802;28;20438;-55
2023/03/15 10:28:44;;;;;;;1.63;1.60;;;;;;;12.99;48.42;94158.84;5111947;28;20566;-56
2023/03/15 10:31:19;;;;;;;0.57;0.57;;;;;;;13.31;48.05;94152.28;5112044;28;20424;-57
2023/03/15 10:33:59;;;;;;;0.67;0.67;;;;;;;13.50;48.38;94152.75;5111516;28;20515;-56
2023/03/15 10:36:27;;;;;;;0.50;0.40;;;;;;;13.87;47.97;94148.59;5111854;28;20433;-56
2023/03/15 10:38:57;;;;;;;1.00;0.53;;;;;;;14.09;46.97;94147.59;5111734;28;20431;-56
2023/03/15 10:41:30;;;;;;;0.50;0.47;;;;;;;14.73;45.44;94137.59;5111581;28;20514;-57
2023/03/15 10:44:02;;;;;;;0.40;0.40;;;;;;;14.38;44.41;94079.16;5112025;28;20510;-57
2023/03/15 10:46:31;;;;;;;0.40;0.30;;;;;;;15.05;46.07;94134.25;5111834;28;20503;-57
2023/03/15 10:49:08;;;;;;;1.07;0.40;;;;;;;14.58;45.05;94137.06;5111255;28;20467;-58
2023/03/15 10:51:40;;;;;;;0.50;0.50;;;;;;;14.70;40.85;94127.59;5111614;28;20430;-57
2023/03/15 10:54:13;;;;;;;0.60;0.60;;;;;;;14.46;39.20;94131.66;5111788;28;20438;-57
2023/03/15 10:56:48;;;;;;;0.50;0.43;;;;;;;14.77;39.79;94117.97;5111996;28;20599;-57
2023/03/15 10:59:19;;;;;;;0.80;0.60;;;;;;;15.11;37.69;94106.25;5111943;28;20419;-56
2023/03/15 11:01:52;;;;;;;0.33;0.27;;;;;;;15.27;35.80;94108.00;5111810;28;20511;-57
2023/03/15 11:04:22;;;;;;;0.50;0.43;;;;;;;14.21;35.92;94115.75;5111482;28;20428;-58
2023/03/15 11:07:01;;;;;;;1.80;0.40;;;;;;;13.88;36.69;94108.34;5111294;28;20518;-57
2023/03/15 11:09:39;;;;;;;1.20;0.60;;;;;;;14.19;36.36;94099.28;5110816;28;20434;-57
2023/03/15 11:12:09;;;;;;;0.40;0.30;;;;;;;15.23;36.10;94061.72;5111303;28;20467;-57
2023/03/15 11:14:41;;;;;;;0.30;0.30;;;;;;;14.38;34.91;94094.34;5111644;28;20424;-58
2023/03/15 11:17:20;;;;;;;0.70;0.70;;;;;;;15.74;34.32;94097.84;5111548;28;20432;-59
2023/03/15 11:19:56;;;;;;;0.80;0.63;;;;;;;16.10;33.90;94089.09;5111545;28;20424;-59
2023/03/15 11:22:25;;;;;;;0.57;0.43;;;;;;;15.94;33.30;94090.84;5111358;28;20468;-58
2023/03/15 11:24:54;;;;;;;0.50;0.33;;;;;;;16.33;33.10;94086.78;5111378;28;20943;-59
2023/03/15 11:27:24;;;;;;;0.40;0.30;;;;;;;15.80;33.17;94042.31;5111770;28;20786;-60
2023/03/15 11:29:57;;;;;;;0.40;0.20;;;;;;;16.12;33.64;94083.41;5111337;28;20429;-61
2023/03/15 11:32:29;;;;;;;1.27;1.17;;;;;;;15.35;33.76;94084.22;5111429;28;20440;-62
2023/03/15 11:35:02;;;;;;;0.57;0.47;;;;;;;14.46;34.15;94026.88;5111376;28;20435;-61
2023/03/15 11:37:38;;;;;;;0.57;0.57;;;;;;;16.34;32.91;94073.06;5111387;28;20424;-61
2023/03/15 11:40:15;;;;;;;3.60;1.13;;;;;;;15.70;32.89;94059.56;5113920;28;20514;-62
2023/03/15 11:42:49;;;;;;;1.03;0.73;;;;;;;15.49;39.97;94042.81;5114867;28;20423;-52
2023/03/15 11:45:33;;;;;;;0.40;0.37;;;;;;;14.54;33.99;94044.72;5114755;28;20430;-56
2023/03/15 11:48:11;;;;;;;0.83;0.40;;;;;;;15.43;35.22;94062.78;5115162;28;20474;-67
2023/03/15 11:50:39;;;;;;;0.40;0.30;;;;;;;15.95;33.74;94055.03;5115292;28;20428;-67
2023/03/15 11:53:10;;;;;;;0.40;0.30;;;;;;;15.84;34.19;94033.28;5114854;28;20490;-67